Kotoka International Airport
DGAA : now visible

Airfield :











YOU CAN JOIN US ON...

 
LOGIN :

Register | Disclaimer

   EN    FR    IT 

 









Legend :    VFR   Marginal VFR   IFR   Intensive IFR   Very Intensive IFR
Visi :
Ceiling :
>= 8 km
>= 3000ft
5 to 8 km
1000 to 3000 ft
1500m to 5 km
500 to 1000 ft
800 to 1500m
200 to 500 ft
< 800m
< 200 ft
Symbols :   Thunderstorms  Fog  Heavy snow  Heavy precipitations  Wind > 20 kt







- Airport Elevation : 205 ft
- IATA code : ACC


DGAA - Kotoka International

CURRENT METAR :
  • 201100Z 25011KT 5000 HZ NSC 31/24 Q1011 NOSIG

EXPIRED METARs :
  • 201000Z 26012KT 230V290 5000 HZ NSC 29/24 Q1011 NOSIG
  • 200900Z 28010KT 5000 HZ NSC 28/24 Q1011 NOSIG

TAF TAF DGAA
Valid from the 20 at 12:00 until the 21 at 18:00 UTC


201100Z 2012/2118 18015KT 5000 HZ FEW018
PROB30
TEMPO 2014/2018 8000 FEW030CB
BECMG 2100/2102 26010KT CAVOK
BECMG 2106/2108 5000 BR NSC
DGAC FIR / Africa



MET'MAP, your aeronautical weather chart ! - Copyright ORBIFLY December 2007 - Disclaimer

ORBIFLY MET'MAP TEAM :

Programming & Development : Alexandra Zaïnal
Concept & Development : Baudouin d'Aumeries
Co-Development & Prog : Marc-Olivier Méhu
Technical & hardware support : Manuel Goepfert

Contact : metmap@orbifly.com




SOURCES & CREDITS :

   NOAA       Earth
Advisory